Historyczne dane pomiarowe

Dodano dane terminowe – wersja testowa.

Dane z okresu 1951-2019

Wersja bazy: 1.34 [2019-03-16, lista zmian], aktualizacja planowana na 2019-04-15

Dane meteo z obszaru Polski uzyskane na podstawie danych udostępnionych przez Instytut Meteorologii i Gospodarki Wodnej – Państwowy Instytut Badawczy.

 

Wybierz Datę:    

       

TemperaturaWilgotnośćZachmurzenieWiatrCiśnienieWidzialnośćZjawiska
 Data    tng td wb rh cc ccl cl cm ch dir g1 g2 mslp ppp      
1999-07-22 00:00:00 10.3--- 6.5 8.378wxwxwxwxwx7wx--- 802.4 0.0---wx
1999-07-22 01:00:00 9.8--- 7.6 8.685wxwxwxwxwx4wx--- 802.2----wx
1999-07-22 02:00:00 10.0--- 6.8 8.381wxwxwxwx8wx--- 801.5----wx
1999-07-22 03:00:00 9.4--- 7.6 8.488wxwxwxwx7wx--- 801.8----wx
1999-07-22 04:00:00 9.4--- 6.7 7.983wxwxwxwx9wx--- 801.8----wx
1999-07-22 05:00:00 10.2--- 3.2 6.762wxwxwxwxwx7wx--- 801.6----wx
1999-07-22 06:00:00 10.0--- 3.4 6.864wxwxwxwxwx8wx--- 801.8 0.0---wx
1999-07-22 07:00:00 9.3--- 4.8 7.174wxwxwxwxwx8wx--- 801.9----wx
1999-07-22 08:00:00 10.3--- 5.8 8.074wxwxwxwx6wx--- 801.8----wx
1999-07-22 09:00:00 10.7--- 5.8 8.172wxwxwxwxwx3wx--- 801.8----wx
1999-07-22 10:00:00 8.8--- 7.7 8.293wxwxwx5wx--- 801.6----wx
1999-07-22 11:00:00 7.5--- 6.7 7.095wxwxwx8wx--- 801.6----wx
1999-07-22 12:00:00 9.3--- 4.6 7.073wxwxwx6wx--- 801.5 0.1---wx
1999-07-22 13:00:00 9.4--- 2.1 5.960wxwxwxwx8wx--- 800.9----wxw1
1999-07-22 14:00:00 9.2--- 4.5 6.973wxwxwx7wx--- 800.5----wxw1
1999-07-22 15:00:00 9.9--- 6.5 8.180wxwxwxwx7wx--- 799.9----wx
1999-07-22 16:00:00 8.9--- 4.0 6.471wxwxwx6wx--- 799.8----wx
1999-07-22 17:00:00 8.3--- 5.3 6.781wxwxwxwx4wx--- 799.8----wx
1999-07-22 18:00:00 8.2--- 5.3 6.782wxwxwxwx4wx--- 799.6 0.2---wxw1
1999-07-22 19:00:00 7.1--- 6.8 7.099wxwx0wx--- 799.8----wx
1999-07-22 20:00:00 6.5--- 6.5 6.5100wxwx2wx--- 799.9----wxw1
1999-07-22 21:00:00 5.9--- 5.9 5.9100wxwx3wx--- 799.7----wx
1999-07-22 22:00:00 5.2--- 5.1 5.2100wxwxwx3wx--- 799.4----wxw1
1999-07-22 23:00:00 5.9--- 5.9 5.9100wxwxwx5wx--- 798.8----wxw1

 

Źródłem pochodzenia danych jest Instytut Meteorologii i Gospodarki Wodnej – Państwowy Instytut Badawczy. Dane Instytutu Meteorologii i Gospodarki Wodnej – Państwowego Instytutu Badawczego zostały przetworzone.

Dane źródłowe można odnaleźć na stronie https://dane.imgw.pl